createdAt,value
2022-11-21T00:00:53.158Z,1008.83
2022-11-21T00:02:53.074Z,1008.75
2022-11-21T00:04:53.058Z,1008.75
2022-11-21T00:06:53.040Z,1008.81
2022-11-21T00:08:53.233Z,1008.82
2022-11-21T00:10:53.055Z,1008.82
2022-11-21T00:12:53.053Z,1008.72
2022-11-21T00:14:53.100Z,1008.72
2022-11-21T00:16:57.178Z,1008.70
2022-11-21T00:19:23.050Z,1008.71
2022-11-21T00:21:23.056Z,1008.72
2022-11-21T00:23:23.131Z,1008.72
2022-11-21T00:25:23.207Z,1008.68
2022-11-21T00:27:23.159Z,1008.66
2022-11-21T00:29:23.109Z,1008.66
2022-11-21T00:31:23.093Z,1008.55
2022-11-21T00:33:23.121Z,1008.55
2022-11-21T00:35:23.078Z,1008.46
2022-11-21T00:37:23.108Z,1008.42
2022-11-21T00:39:23.207Z,1008.44
2022-11-21T00:41:23.086Z,1008.44
2022-11-21T00:43:23.049Z,1008.44
2022-11-21T00:45:24.460Z,1008.30
2022-11-21T00:47:23.056Z,1008.37
2022-11-21T00:49:23.054Z,1008.39
2022-11-21T00:51:23.216Z,1008.39
2022-11-21T00:53:23.081Z,1008.39
2022-11-21T00:55:23.138Z,1008.27
2022-11-21T00:57:23.188Z,1008.20
2022-11-21T00:59:23.062Z,1008.18
2022-11-21T01:01:23.070Z,1008.18
2022-11-21T01:03:23.175Z,1008.25
2022-11-21T01:05:23.148Z,1008.04
2022-11-21T01:09:23.252Z,1008.09
2022-11-21T01:13:18.206Z,1008.08
2022-11-21T01:15:18.231Z,1008.09
2022-11-21T01:17:18.263Z,1008.09
2022-11-21T01:19:18.262Z,1008.09
2022-11-21T01:21:18.245Z,1008.08
2022-11-21T01:23:18.210Z,1008.01
2022-11-21T01:25:18.304Z,1007.95
2022-11-21T01:27:18.271Z,1007.97
2022-11-21T01:29:18.246Z,1007.97
2022-11-21T01:31:18.316Z,1007.95
2022-11-21T01:33:18.275Z,1007.95
2022-11-21T01:35:18.284Z,1008.08
2022-11-21T01:37:18.213Z,1007.97
2022-11-21T01:39:18.267Z,1007.97
2022-11-21T01:41:18.209Z,1007.93
2022-11-21T01:43:18.232Z,1007.96
2022-11-21T01:45:18.320Z,1007.93
2022-11-21T01:47:18.219Z,1007.93
2022-11-21T01:49:18.285Z,1007.79
2022-11-21T01:51:18.291Z,1007.77
2022-11-21T01:53:48.305Z,1007.71
2022-11-21T01:55:48.265Z,1007.68
2022-11-21T01:57:48.342Z,1007.64
2022-11-21T01:59:48.242Z,1007.53
2022-11-21T02:01:48.384Z,1007.53
2022-11-21T02:03:48.290Z,1007.54
2022-11-21T02:05:48.287Z,1007.59
2022-11-21T02:07:48.249Z,1007.64
2022-11-21T02:09:48.286Z,1007.67
2022-11-21T02:11:48.258Z,1007.67
2022-11-21T02:13:48.276Z,1007.67
2022-11-21T02:15:48.291Z,1007.71
2022-11-21T02:17:48.240Z,1007.63
2022-11-21T02:19:48.269Z,1007.63
2022-11-21T02:21:48.297Z,1007.71
2022-11-21T02:23:48.238Z,1007.75
2022-11-21T02:25:48.262Z,1007.70
2022-11-21T02:27:48.312Z,1007.78
2022-11-21T02:29:48.265Z,1007.78
2022-11-21T02:31:48.225Z,1007.80
2022-11-21T02:33:48.365Z,1007.71
2022-11-21T02:35:48.316Z,1007.67
2022-11-21T02:37:48.243Z,1007.71
2022-11-21T02:39:48.235Z,1007.71
2022-11-21T02:41:48.264Z,1007.71
2022-11-21T02:43:48.333Z,1007.79
2022-11-21T02:45:48.305Z,1007.78
2022-11-21T02:47:48.377Z,1007.78
2022-11-21T02:49:48.252Z,1007.85
2022-11-21T02:51:48.307Z,1007.85
2022-11-21T02:53:48.249Z,1007.85
2022-11-21T02:55:48.307Z,1007.85
2022-11-21T02:57:48.391Z,1007.85
2022-11-21T02:59:48.278Z,1007.74
2022-11-21T03:01:48.302Z,1007.67
2022-11-21T03:03:48.335Z,1007.68
2022-11-21T03:05:48.294Z,1007.69
2022-11-21T03:07:48.341Z,1007.69
2022-11-21T03:09:48.321Z,1007.67
2022-11-21T03:11:48.355Z,1007.67
2022-11-21T03:13:48.273Z,1007.58
2022-11-21T03:15:48.373Z,1007.62
2022-11-21T03:17:48.279Z,1007.62
2022-11-21T03:19:48.336Z,1007.61
2022-11-21T03:21:48.272Z,1007.54
2022-11-21T03:23:48.315Z,1007.52
2022-11-21T03:25:48.420Z,1007.52
2022-11-21T03:27:48.288Z,1007.44
2022-11-21T03:29:48.355Z,1007.50
2022-11-21T03:31:48.296Z,1007.49
2022-11-21T03:33:48.322Z,1007.49
2022-11-21T03:35:48.327Z,1007.49
2022-11-21T03:37:48.330Z,1007.37
2022-11-21T03:39:48.364Z,1007.48
2022-11-21T03:41:48.320Z,1007.40
2022-11-21T03:43:48.385Z,1007.35
2022-11-21T03:46:18.318Z,1007.35
2022-11-21T03:48:18.302Z,1007.33
2022-11-21T03:50:18.278Z,1007.30
2022-11-21T03:52:18.291Z,1007.27
2022-11-21T03:54:18.282Z,1007.27
2022-11-21T03:56:18.337Z,1007.18
2022-11-21T03:58:18.302Z,1007.17
2022-11-21T04:00:18.288Z,1007.19
2022-11-21T04:02:18.315Z,1007.14
2022-11-21T04:04:18.303Z,1007.14
2022-11-21T04:06:18.319Z,1007.16
2022-11-21T04:08:18.337Z,1007.13
2022-11-21T04:10:18.365Z,1007.14
2022-11-21T04:12:18.346Z,1007.17
2022-11-21T04:14:18.342Z,1007.17
2022-11-21T04:16:18.452Z,1007.17
2022-11-21T04:18:18.337Z,1007.17
2022-11-21T04:20:18.417Z,1007.16
2022-11-21T04:22:18.321Z,1007.16
2022-11-21T04:24:18.402Z,1007.18
2022-11-21T04:26:18.293Z,1007.16
2022-11-21T04:28:18.302Z,1007.12
2022-11-21T04:30:18.293Z,1007.12
2022-11-21T04:32:18.454Z,1007.12
2022-11-21T04:34:18.314Z,1007.14
2022-11-21T04:36:18.306Z,1007.08
2022-11-21T04:38:18.302Z,1007.08
2022-11-21T04:40:18.346Z,1007.09
2022-11-21T04:42:18.310Z,1007.09
2022-11-21T04:44:18.331Z,1007.05
2022-11-21T04:46:18.354Z,1007.08
2022-11-21T04:48:18.442Z,1007.04
2022-11-21T04:50:18.320Z,1007.04
2022-11-21T04:52:18.411Z,1007.04
2022-11-21T04:54:18.365Z,1007.03
2022-11-21T04:56:18.433Z,1007.03
2022-11-21T04:58:18.347Z,1006.96
2022-11-21T05:00:23.763Z,1006.96
2022-11-21T05:02:18.302Z,1007.01
2022-11-21T05:04:18.507Z,1007.06
2022-11-21T05:06:18.365Z,1006.97
2022-11-21T05:08:18.327Z,1007.01
2022-11-21T05:10:18.463Z,1007.01
2022-11-21T05:12:18.342Z,1006.98
2022-11-21T05:14:18.343Z,1007.00
2022-11-21T05:16:18.364Z,1006.99
2022-11-21T05:18:18.324Z,1006.97
2022-11-21T05:20:18.349Z,1006.97
2022-11-21T05:22:18.400Z,1006.93
2022-11-21T05:24:18.369Z,1006.92
2022-11-21T05:26:18.404Z,1006.89
2022-11-21T05:28:18.380Z,1006.89
2022-11-21T05:30:18.336Z,1006.91
2022-11-21T05:32:18.385Z,1006.86
2022-11-21T05:34:18.353Z,1006.90
2022-11-21T05:36:18.396Z,1006.90
2022-11-21T05:38:18.410Z,1006.90
2022-11-21T05:40:48.425Z,1006.88
2022-11-21T05:42:48.472Z,1006.88
2022-11-21T05:44:48.464Z,1006.91
2022-11-21T05:46:48.332Z,1006.93
2022-11-21T05:48:48.344Z,1006.87
2022-11-21T05:50:48.334Z,1006.87
2022-11-21T05:52:48.406Z,1006.87
2022-11-21T05:54:48.375Z,1007.00
2022-11-21T05:56:48.340Z,1007.00
2022-11-21T05:58:48.337Z,1007.09
2022-11-21T06:00:48.404Z,1007.09
2022-11-21T06:02:48.455Z,1007.10
2022-11-21T06:04:48.367Z,1007.18
2022-11-21T06:06:48.350Z,1007.10
2022-11-21T06:08:48.340Z,1007.17
2022-11-21T06:10:48.495Z,1007.17
2022-11-21T06:12:48.456Z,1007.26
2022-11-21T06:14:48.384Z,1007.26
2022-11-21T06:16:48.367Z,1007.26
2022-11-21T06:18:48.408Z,1007.26
2022-11-21T06:20:48.366Z,1007.26
2022-11-21T06:22:48.459Z,1007.26
2022-11-21T06:24:48.476Z,1007.26
2022-11-21T06:26:48.402Z,1007.26
2022-11-21T06:28:48.372Z,1007.26
2022-11-21T06:30:48.476Z,1007.14
2022-11-21T06:32:48.449Z,1007.27
2022-11-21T06:34:48.363Z,1007.35
2022-11-21T06:36:48.402Z,1007.36
2022-11-21T06:38:48.499Z,1007.36
2022-11-21T06:40:48.436Z,1007.36
2022-11-21T06:42:48.354Z,1007.32
2022-11-21T06:44:48.379Z,1007.28
2022-11-21T06:46:50.961Z,1007.30
2022-11-21T06:48:48.357Z,1007.30
2022-11-21T06:50:48.379Z,1007.40
2022-11-21T06:52:48.378Z,1007.39
2022-11-21T06:54:48.484Z,1007.38
2022-11-21T06:56:48.450Z,1007.38
2022-11-21T06:58:48.387Z,1007.38
2022-11-21T07:00:48.525Z,1007.52
2022-11-21T07:02:48.531Z,1007.50
2022-11-21T07:04:48.428Z,1007.51
2022-11-21T07:06:48.450Z,1007.51
2022-11-21T07:09:00.006Z,1007.57
2022-11-21T07:11:10.111Z,1007.55
2022-11-21T07:12:48.396Z,1007.57
2022-11-21T07:14:48.398Z,1007.59
2022-11-21T07:16:48.387Z,1007.59
2022-11-21T07:20:48.445Z,1007.61
2022-11-21T07:22:48.418Z,1007.66
2022-11-21T07:24:48.407Z,1007.66
2022-11-21T07:26:48.423Z,1007.70
2022-11-21T07:28:48.387Z,1007.74
2022-11-21T07:30:48.433Z,1007.74
2022-11-21T07:33:18.421Z,1007.68
2022-11-21T07:35:18.410Z,1007.68
2022-11-21T07:37:18.443Z,1007.67
2022-11-21T07:39:18.389Z,1007.67
2022-11-21T07:41:18.491Z,1007.70
2022-11-21T07:43:18.383Z,1007.69
2022-11-21T07:45:18.482Z,1007.69
2022-11-21T07:47:18.727Z,1007.73
2022-11-21T07:49:18.448Z,1007.61
2022-11-21T07:51:18.510Z,1007.60
2022-11-21T07:53:18.399Z,1007.60
2022-11-21T07:55:18.466Z,1007.54
2022-11-21T07:57:18.427Z,1007.58
2022-11-21T07:59:18.543Z,1007.55
2022-11-21T08:01:18.440Z,1007.59
2022-11-21T08:03:18.420Z,1007.59
2022-11-21T08:05:18.406Z,1007.59
2022-11-21T08:07:18.559Z,1007.60
2022-11-21T08:09:18.410Z,1007.61
2022-11-21T08:10:58.872Z,1007.63
2022-11-21T08:13:28.790Z,1007.68
2022-11-21T08:15:28.824Z,1007.62
2022-11-21T08:17:28.825Z,1007.62
2022-11-21T08:19:29.086Z,1007.62
2022-11-21T08:21:28.825Z,1007.58
2022-11-21T08:23:28.802Z,1007.67
2022-11-21T08:25:28.879Z,1007.67
2022-11-21T08:27:28.837Z,1007.50
2022-11-21T08:29:29.112Z,1007.58
2022-11-21T08:31:28.869Z,1007.63
2022-11-21T08:33:28.822Z,1007.53
2022-11-21T08:35:28.824Z,1007.53
2022-11-21T08:37:28.790Z,1007.76
2022-11-21T08:39:29.013Z,1007.72
2022-11-21T08:41:28.878Z,1007.73
2022-11-21T08:43:28.837Z,1007.74
2022-11-21T08:45:28.933Z,1007.74
2022-11-21T08:47:28.850Z,1007.80
2022-11-21T08:49:28.958Z,1007.82
2022-11-21T08:51:28.868Z,1007.76
2022-11-21T08:53:28.853Z,1007.76
2022-11-21T08:55:28.860Z,1007.78
2022-11-21T08:57:28.931Z,1007.78
2022-11-21T08:59:28.908Z,1007.78
2022-11-21T09:01:28.875Z,1007.80
2022-11-21T09:03:31.347Z,1007.80
2022-11-21T09:05:28.888Z,1007.81
2022-11-21T09:07:28.919Z,1007.85
2022-11-21T09:09:28.861Z,1007.81
2022-11-21T09:11:28.866Z,1007.85
2022-11-21T09:13:28.896Z,1007.85
2022-11-21T09:15:28.883Z,1007.70
2022-11-21T09:17:28.872Z,1007.67
2022-11-21T09:19:29.007Z,1007.65
2022-11-21T09:21:28.831Z,1007.62
2022-11-21T09:23:28.828Z,1007.62
2022-11-21T09:25:28.903Z,1007.66
2022-11-21T09:27:28.857Z,1007.64
2022-11-21T09:29:29.000Z,1007.64
2022-11-21T09:31:29.008Z,1007.64
2022-11-21T09:33:28.837Z,1007.61
2022-11-21T09:35:28.986Z,1007.62
2022-11-21T09:37:28.883Z,1007.67
2022-11-21T09:39:29.182Z,1007.67
2022-11-21T09:41:28.906Z,1007.67
2022-11-21T09:43:28.894Z,1007.60
2022-11-21T09:45:28.954Z,1007.54
2022-11-21T09:47:28.889Z,1007.47
2022-11-21T09:49:29.150Z,1007.51
2022-11-21T09:51:28.995Z,1007.51
2022-11-21T09:53:28.904Z,1007.49
2022-11-21T09:55:28.903Z,1007.49
2022-11-21T09:57:33.581Z,1007.48
2022-11-21T09:59:28.886Z,1007.48
2022-11-21T10:01:28.953Z,1007.41
2022-11-21T10:03:28.962Z,1007.45
2022-11-21T10:05:58.876Z,1007.38
2022-11-21T10:07:58.878Z,1007.36
2022-11-21T10:09:58.866Z,1007.36
2022-11-21T10:11:58.911Z,1007.38
2022-11-21T10:13:58.914Z,1007.33
2022-11-21T10:15:58.921Z,1007.33
2022-11-21T10:17:58.904Z,1007.33
2022-11-21T10:19:58.926Z,1007.33
2022-11-21T10:21:59.049Z,1007.33
2022-11-21T10:23:59.009Z,1007.24
2022-11-21T10:25:58.919Z,1007.24
2022-11-21T10:27:58.897Z,1007.24
2022-11-21T10:29:58.941Z,1007.09
2022-11-21T10:31:58.915Z,1007.13
2022-11-21T10:33:58.952Z,1007.08
2022-11-21T10:35:58.921Z,1007.02
2022-11-21T10:37:58.883Z,1007.02
2022-11-21T10:39:59.017Z,1006.96
2022-11-21T10:41:58.910Z,1006.90
2022-11-21T10:43:58.900Z,1006.92
2022-11-21T10:45:58.945Z,1006.87
2022-11-21T10:48:02.589Z,1006.87
2022-11-21T10:49:58.938Z,1006.85
2022-11-21T10:51:58.949Z,1006.79
2022-11-21T10:54:03.227Z,1006.71
2022-11-21T10:55:58.941Z,1006.71
2022-11-21T10:57:58.880Z,1006.67
2022-11-21T10:59:58.996Z,1006.55
2022-11-21T11:01:58.952Z,1006.55
2022-11-21T11:04:20.830Z,1006.46
2022-11-21T11:05:58.940Z,1006.46
2022-11-21T11:07:58.930Z,1006.43
2022-11-21T11:09:58.967Z,1006.45
2022-11-21T11:11:58.926Z,1006.43
2022-11-21T11:13:58.912Z,1006.47
2022-11-21T11:15:58.969Z,1006.47
2022-11-21T11:18:01.513Z,1006.44
2022-11-21T11:19:58.951Z,1006.34
2022-11-21T11:21:58.977Z,1006.30
2022-11-21T11:23:59.075Z,1006.26
2022-11-21T11:25:58.907Z,1006.26
2022-11-21T11:27:58.970Z,1006.22
2022-11-21T11:29:58.917Z,1006.18
2022-11-21T11:31:58.925Z,1006.10
2022-11-21T11:33:58.964Z,1006.10
2022-11-21T11:35:58.900Z,1006.05
2022-11-21T11:37:59.071Z,1006.04
2022-11-21T11:39:59.089Z,1005.99
2022-11-21T11:41:58.919Z,1005.99
2022-11-21T11:43:58.953Z,1005.99
2022-11-21T11:45:58.978Z,1005.89
2022-11-21T11:47:59.120Z,1005.82
2022-11-21T11:49:58.940Z,1005.78
2022-11-21T11:51:58.958Z,1005.76
2022-11-21T11:54:01.262Z,1005.76
2022-11-21T11:55:58.970Z,1005.69
2022-11-21T11:57:58.974Z,1005.67
2022-11-21T11:59:59.002Z,1005.61
2022-11-21T12:01:59.031Z,1005.61
2022-11-21T12:04:29.195Z,1005.51
2022-11-21T12:06:54.743Z,1005.51
2022-11-21T12:08:42.799Z,1005.50
2022-11-21T12:10:28.953Z,1005.49
2022-11-21T12:12:29.121Z,1005.45
2022-11-21T12:14:29.033Z,1005.43
2022-11-21T12:16:28.969Z,1005.43
2022-11-21T12:18:28.962Z,1005.36
2022-11-21T12:20:28.956Z,1005.33
2022-11-21T12:22:28.972Z,1005.33
2022-11-21T12:24:29.137Z,1005.33
2022-11-21T12:26:28.987Z,1005.23
2022-11-21T12:28:28.983Z,1005.17
2022-11-21T12:30:29.010Z,1005.06
2022-11-21T12:32:28.946Z,1005.03
2022-11-21T12:34:28.975Z,1005.03
2022-11-21T12:36:29.064Z,1004.99
2022-11-21T12:38:29.115Z,1004.89
2022-11-21T12:40:29.005Z,1004.89
2022-11-21T12:42:28.983Z,1004.86
2022-11-21T12:44:29.019Z,1004.86
2022-11-21T12:46:29.102Z,1004.77
2022-11-21T12:48:28.953Z,1004.77
2022-11-21T12:50:30.196Z,1004.65
2022-11-21T12:52:29.044Z,1004.63
2022-11-21T12:54:29.093Z,1004.63
2022-11-21T12:56:29.242Z,1004.58
2022-11-21T12:58:29.152Z,1004.49
2022-11-21T13:00:29.054Z,1004.48
2022-11-21T13:02:29.037Z,1004.48
2022-11-21T13:04:29.083Z,1004.48
2022-11-21T13:06:29.085Z,1004.44
2022-11-21T13:08:29.093Z,1004.41
2022-11-21T13:10:28.981Z,1004.38
2022-11-21T13:12:29.090Z,1004.38
2022-11-21T13:14:29.013Z,1004.30
2022-11-21T13:16:29.054Z,1004.27
2022-11-21T13:18:29.054Z,1004.29
2022-11-21T13:20:29.124Z,1004.27
2022-11-21T13:22:29.126Z,1004.27
2022-11-21T13:24:29.115Z,1004.26
2022-11-21T13:26:29.061Z,1004.27
2022-11-21T13:28:29.118Z,1004.31
2022-11-21T13:30:29.071Z,1004.31
2022-11-21T13:32:29.067Z,1004.27
2022-11-21T13:34:29.190Z,1004.27
2022-11-21T13:36:29.074Z,1004.22
2022-11-21T13:38:29.104Z,1004.13
2022-11-21T13:40:29.116Z,1004.13
2022-11-21T13:42:29.077Z,1003.97
2022-11-21T13:44:28.986Z,1003.97
2022-11-21T13:46:29.102Z,1003.88
2022-11-21T13:48:30.135Z,1003.74
2022-11-21T13:50:29.104Z,1003.74
2022-11-21T13:52:29.064Z,1003.66
2022-11-21T13:54:29.111Z,1003.67
2022-11-21T13:56:29.097Z,1003.62
2022-11-21T13:58:29.050Z,1003.62
2022-11-21T14:00:29.059Z,1003.61
2022-11-21T14:02:59.063Z,1003.54
2022-11-21T14:04:59.074Z,1003.49
2022-11-21T14:06:59.186Z,1003.48
2022-11-21T14:08:59.105Z,1003.48
2022-11-21T14:10:59.138Z,1003.42
2022-11-21T14:12:59.040Z,1003.43
2022-11-21T14:14:59.030Z,1003.41
2022-11-21T14:16:59.068Z,1003.37
2022-11-21T14:18:59.090Z,1003.37
2022-11-21T14:20:59.131Z,1003.39
2022-11-21T14:22:59.123Z,1003.40
2022-11-21T14:24:59.155Z,1003.40
2022-11-21T14:26:59.140Z,1003.40
2022-11-21T14:28:59.067Z,1003.32
2022-11-21T14:30:59.120Z,1003.34
2022-11-21T14:32:59.188Z,1003.28
2022-11-21T14:34:59.111Z,1003.26
2022-11-21T14:36:59.202Z,1003.26
2022-11-21T14:39:20.807Z,1003.17
2022-11-21T14:41:00.081Z,1003.09
2022-11-21T14:42:59.148Z,1002.99
2022-11-21T14:44:59.151Z,1002.91
2022-11-21T14:46:59.094Z,1002.91
2022-11-21T14:48:59.262Z,1002.85
2022-11-21T14:51:13.776Z,1002.85
2022-11-21T14:52:59.140Z,1002.89
2022-11-21T14:55:29.750Z,1002.92
2022-11-21T14:56:59.156Z,1002.92
2022-11-21T14:58:59.126Z,1002.87
2022-11-21T15:01:07.208Z,1002.83
2022-11-21T15:02:47.730Z,1002.83
2022-11-21T15:04:48.103Z,1002.83
2022-11-21T15:06:47.743Z,1002.83
2022-11-21T15:10:47.780Z,1002.68
2022-11-21T15:13:17.806Z,1002.65
2022-11-21T15:15:17.854Z,1002.65
2022-11-21T15:17:17.856Z,1002.56
2022-11-21T15:19:17.870Z,1002.51
2022-11-21T15:21:17.863Z,1002.50
2022-11-21T15:23:17.813Z,1002.46
2022-11-21T15:25:20.540Z,1002.46
2022-11-21T15:27:17.835Z,1002.24
2022-11-21T15:29:17.816Z,1002.21
2022-11-21T15:31:17.847Z,1002.20
2022-11-21T15:33:17.869Z,1002.20
2022-11-21T15:35:17.862Z,1002.22
2022-11-21T15:37:17.796Z,1002.16
2022-11-21T15:39:17.819Z,1002.09
2022-11-21T15:41:17.826Z,1002.04
2022-11-21T15:43:17.861Z,1002.04
2022-11-21T15:45:20.252Z,1001.89
2022-11-21T15:47:17.919Z,1001.89
2022-11-21T15:51:20.487Z,1001.73
2022-11-21T15:53:17.795Z,1001.73
2022-11-21T15:55:17.801Z,1001.74
2022-11-21T15:57:13.221Z,1001.79
2022-11-21T15:59:17.869Z,1001.66
2022-11-21T16:01:17.784Z,1001.66
2022-11-21T16:03:17.801Z,1001.63
2022-11-21T16:05:17.754Z,1001.58
2022-11-21T16:07:17.893Z,1001.42
2022-11-21T16:09:17.806Z,1001.36
2022-11-21T16:11:17.784Z,1001.36
2022-11-21T16:13:17.847Z,1001.36
2022-11-21T16:15:17.920Z,1001.25
2022-11-21T16:17:17.870Z,1001.09
2022-11-21T16:19:17.799Z,1001.07
2022-11-21T16:21:17.930Z,1001.07
2022-11-21T16:23:17.988Z,1001.03
2022-11-21T16:25:17.919Z,1000.99
2022-11-21T16:27:17.839Z,1000.99
2022-11-21T16:29:17.860Z,1000.99
2022-11-21T16:31:17.866Z,1001.00
2022-11-21T16:33:19.746Z,1000.95
2022-11-21T16:35:17.921Z,1000.93
2022-11-21T16:37:17.879Z,1000.85
2022-11-21T16:39:18.486Z,1000.85
2022-11-21T16:41:17.864Z,1000.71
2022-11-21T16:43:18.886Z,1000.66
2022-11-21T16:45:17.941Z,1000.68
2022-11-21T16:47:17.886Z,1000.73
2022-11-21T16:49:17.866Z,1000.73
2022-11-21T16:51:17.951Z,1000.56
2022-11-21T16:53:17.832Z,1000.41
2022-11-21T16:55:17.874Z,1000.42
2022-11-21T16:57:17.864Z,1000.39
2022-11-21T16:59:18.123Z,1000.39
2022-11-21T17:01:17.854Z,1000.26
2022-11-21T17:03:17.971Z,1000.25
2022-11-21T17:07:47.885Z,1000.23
2022-11-21T17:09:48.001Z,1000.10
2022-11-21T17:11:48.022Z,1000.10
2022-11-21T17:13:47.866Z,1000.05
2022-11-21T17:15:48.037Z,999.98
2022-11-21T17:17:48.226Z,999.90
2022-11-21T17:19:48.032Z,999.80
2022-11-21T17:21:48.082Z,999.80
2022-11-21T17:23:48.187Z,999.70
2022-11-21T17:25:47.909Z,999.68
2022-11-21T17:27:47.902Z,999.66
2022-11-21T17:29:48.045Z,999.66
2022-11-21T17:31:47.873Z,999.55
2022-11-21T17:33:47.943Z,999.50
2022-11-21T17:35:47.936Z,999.58
2022-11-21T17:37:47.875Z,999.53
2022-11-21T17:39:48.193Z,999.53
2022-11-21T17:41:47.945Z,999.44
2022-11-21T17:43:47.893Z,999.42
2022-11-21T17:45:47.952Z,999.42
2022-11-21T17:47:47.951Z,999.42
2022-11-21T17:49:48.048Z,999.42
2022-11-21T17:51:49.662Z,999.39
2022-11-21T17:53:47.907Z,999.34
2022-11-21T17:55:47.858Z,999.31
2022-11-21T17:57:47.883Z,999.27
2022-11-21T17:59:47.948Z,999.27
2022-11-21T18:01:47.889Z,999.31
2022-11-21T18:03:47.796Z,999.28
2022-11-21T18:05:51.644Z,999.29
2022-11-21T18:07:47.930Z,999.29
2022-11-21T18:09:48.012Z,999.42
2022-11-21T18:11:47.918Z,999.45
2022-11-21T18:13:48.138Z,999.44
2022-11-21T18:15:48.123Z,999.35
2022-11-21T18:17:47.864Z,999.35
2022-11-21T18:19:47.946Z,999.35
2022-11-21T18:21:47.990Z,999.35
2022-11-21T18:23:47.874Z,999.35
2022-11-21T18:25:47.896Z,999.31
2022-11-21T18:27:54.297Z,999.31
2022-11-21T18:29:47.932Z,999.31
2022-11-21T18:31:47.843Z,999.31
2022-11-21T18:33:47.872Z,999.13
2022-11-21T18:35:47.959Z,999.13
2022-11-21T18:37:47.877Z,999.01
2022-11-21T18:39:47.840Z,998.85
2022-11-21T18:41:47.895Z,998.76
2022-11-21T18:43:47.925Z,998.73
2022-11-21T18:45:47.879Z,998.73
2022-11-21T18:47:48.467Z,998.69
2022-11-21T18:49:48.153Z,998.69
2022-11-21T18:51:48.452Z,998.69
2022-11-21T18:53:48.008Z,998.45
2022-11-21T18:56:17.938Z,998.45
2022-11-21T18:58:17.912Z,998.45
2022-11-21T19:00:17.945Z,998.21
2022-11-21T19:02:17.878Z,998.21
2022-11-21T19:04:17.875Z,998.21
2022-11-21T19:06:17.864Z,998.21
2022-11-21T19:08:17.916Z,998.12
2022-11-21T19:10:42.141Z,998.12
2022-11-21T19:12:17.960Z,998.20
2022-11-21T19:14:17.964Z,998.20
2022-11-21T19:16:17.883Z,998.23
2022-11-21T19:18:18.021Z,998.16
2022-11-21T19:20:17.869Z,998.17
2022-11-21T19:22:17.881Z,998.17
2022-11-21T19:24:17.929Z,998.17
2022-11-21T19:26:17.959Z,998.06
2022-11-21T19:28:17.927Z,997.99
2022-11-21T19:30:17.998Z,997.88
2022-11-21T19:32:17.945Z,997.88
2022-11-21T19:34:17.934Z,997.88
2022-11-21T19:36:17.872Z,997.88
2022-11-21T19:38:17.914Z,997.88
2022-11-21T19:40:18.030Z,997.88
2022-11-21T19:42:17.915Z,997.88
2022-11-21T19:44:17.978Z,997.82
2022-11-21T19:46:17.993Z,997.82
2022-11-21T19:48:18.015Z,997.84
2022-11-21T19:50:17.900Z,997.84
2022-11-21T19:52:17.949Z,997.84
2022-11-21T19:54:17.912Z,997.81
2022-11-21T19:56:18.064Z,997.87
2022-11-21T19:58:17.946Z,997.74
2022-11-21T20:00:18.013Z,997.73
2022-11-21T20:02:17.881Z,997.73
2022-11-21T20:04:17.974Z,997.69
2022-11-21T20:06:17.900Z,997.64
2022-11-21T20:08:18.386Z,997.64
2022-11-21T20:10:17.966Z,997.64
2022-11-21T20:12:17.982Z,997.64
2022-11-21T20:14:21.787Z,997.61
2022-11-21T20:16:18.048Z,997.67
2022-11-21T20:18:18.009Z,997.64
2022-11-21T20:20:18.064Z,997.64
2022-11-21T20:22:17.977Z,997.67
2022-11-21T20:24:17.959Z,997.70
2022-11-21T20:26:19.053Z,997.70
2022-11-21T20:28:17.964Z,997.55
2022-11-21T20:30:18.012Z,997.55
2022-11-21T20:32:17.916Z,997.55
2022-11-21T20:34:18.013Z,997.76
2022-11-21T20:36:17.954Z,997.72
2022-11-21T20:38:23.007Z,997.72
2022-11-21T20:40:17.937Z,997.72
2022-11-21T20:42:20.035Z,997.88
2022-11-21T20:46:20.619Z,997.90
2022-11-21T20:48:20.487Z,997.90
2022-11-21T20:52:04.373Z,997.87
2022-11-21T20:54:47.964Z,997.85
2022-11-21T20:56:48.063Z,997.84
2022-11-21T20:58:48.023Z,997.81
2022-11-21T21:00:48.016Z,997.82
2022-11-21T21:02:47.896Z,997.82
2022-11-21T21:04:48.057Z,997.82
2022-11-21T21:06:48.006Z,997.76
2022-11-21T21:08:47.929Z,997.78
2022-11-21T21:11:05.183Z,997.78
2022-11-21T21:12:48.832Z,997.78
2022-11-21T21:14:48.018Z,997.67
2022-11-21T21:16:48.055Z,997.70
2022-11-21T21:18:52.326Z,997.68
2022-11-21T21:21:14.897Z,997.68
2022-11-21T21:22:48.008Z,997.68
2022-11-21T21:24:47.997Z,997.66
2022-11-21T21:26:48.014Z,997.66
2022-11-21T21:28:48.045Z,997.68
2022-11-21T21:30:48.048Z,997.68
2022-11-21T21:32:48.084Z,997.69
2022-11-21T21:34:48.112Z,997.73
2022-11-21T21:36:48.080Z,997.74
2022-11-21T21:38:48.087Z,997.74
2022-11-21T21:40:48.008Z,997.64
2022-11-21T21:42:48.037Z,997.64
2022-11-21T21:44:48.066Z,997.64
2022-11-21T21:46:48.055Z,997.64
2022-11-21T21:48:48.006Z,997.64
2022-11-21T21:50:47.953Z,997.55
2022-11-21T21:52:47.982Z,997.55
2022-11-21T21:54:48.098Z,997.55
2022-11-21T21:56:48.146Z,997.55
2022-11-21T21:58:48.198Z,997.55
2022-11-21T22:00:48.134Z,997.28
2022-11-21T22:02:48.101Z,997.31
2022-11-21T22:06:48.440Z,997.31
2022-11-21T22:08:48.136Z,997.38
2022-11-21T22:12:48.009Z,997.27
2022-11-21T22:16:48.069Z,997.31
2022-11-21T22:18:58.702Z,997.33
2022-11-21T22:20:58.703Z,997.33
2022-11-21T22:23:00.501Z,997.31
2022-11-21T22:24:58.692Z,997.33
2022-11-21T22:26:58.692Z,997.33
2022-11-21T22:28:58.797Z,997.16
2022-11-21T22:30:58.736Z,997.10
2022-11-21T22:32:58.744Z,997.10
2022-11-21T22:34:58.672Z,997.10
2022-11-21T22:36:58.657Z,997.10
2022-11-21T22:38:58.762Z,996.80
2022-11-21T22:40:58.723Z,996.84
2022-11-21T22:42:58.809Z,996.88
2022-11-21T22:44:58.678Z,996.88
2022-11-21T22:46:58.721Z,997.08
2022-11-21T22:48:58.800Z,997.08
2022-11-21T22:50:58.673Z,997.08
2022-11-21T22:52:58.692Z,997.01
2022-11-21T22:54:58.723Z,997.01
2022-11-21T22:56:58.694Z,997.01
2022-11-21T22:58:58.727Z,996.96
2022-11-21T23:00:58.733Z,997.00
2022-11-21T23:02:58.719Z,997.05
2022-11-21T23:04:58.708Z,997.05
2022-11-21T23:06:58.733Z,997.18
2022-11-21T23:08:58.681Z,997.20
2022-11-21T23:10:58.822Z,997.20
2022-11-21T23:12:58.666Z,997.20
2022-11-21T23:14:58.723Z,997.20
2022-11-21T23:16:58.681Z,997.43
2022-11-21T23:18:58.731Z,997.41
2022-11-21T23:20:58.746Z,997.41
2022-11-21T23:22:58.685Z,997.41
2022-11-21T23:25:28.790Z,997.52
2022-11-21T23:27:28.724Z,997.52
2022-11-21T23:29:28.935Z,997.56
2022-11-21T23:31:28.730Z,997.63
2022-11-21T23:33:28.698Z,997.59
2022-11-21T23:35:28.706Z,997.59
2022-11-21T23:37:28.854Z,997.54
2022-11-21T23:39:29.209Z,997.54
2022-11-21T23:41:28.850Z,997.54
2022-11-21T23:43:28.717Z,997.52
2022-11-21T23:45:28.844Z,997.52
2022-11-21T23:47:28.764Z,997.50
2022-11-21T23:49:28.897Z,997.47
2022-11-21T23:51:28.815Z,997.47
2022-11-21T23:53:28.886Z,997.47
2022-11-21T23:55:28.693Z,997.47
2022-11-21T23:57:28.710Z,997.28
2022-11-21T23:59:28.918Z,997.26
